Time;durP1;ratioP1;P1;durP2;ratioP2;P2;SDS_P1;SDS_P2;PMS_P1;PMS_P2;Temp;Humidity;BMP_temperature;BMP_pressure;BME280_temperature;BME280_humidity;BME280_pressure;Samples;Min_cycle;Max_cycle;Signal;HPM_P1;HPM_P2
2024/04/21 00:01:20;;;;;;;;;10.25;9.75;;;;;-143.90;100.00;76081.97;5302159;26;99820;-74
2024/04/21 00:03:48;;;;;;;;;9.50;8.75;;;;;-143.90;100.00;76086.13;5291271;25;98908;-75
2024/04/21 00:06:15;;;;;;;;;12.50;10.50;;;;;-143.90;100.00;76092.31;5300409;25;98279;-73
2024/04/21 00:08:42;;;;;;;;;10.00;8.00;;;;;-143.90;100.00;76094.38;5314134;25;98297;-73
2024/04/21 00:11:09;;;;;;;;;11.50;9.00;;;;;-143.90;100.00;76096.44;5306203;25;99859;-75
2024/04/21 00:13:36;;;;;;;;;8.75;8.75;;;;;-143.90;100.00;76104.72;5306960;25;97706;-73
2024/04/21 00:16:03;;;;;;;;;10.50;10.50;;;;;-143.90;100.00;76102.66;5311227;25;100427;-73
2024/04/21 00:18:29;;;;;;;;;8.00;6.75;;;;;-143.90;100.00;76104.72;5311272;26;97949;-74
2024/04/21 00:20:56;;;;;;;;;9.25;9.25;;;;;-143.90;100.00;76115.06;5315157;25;99742;-73
2024/04/21 00:23:23;;;;;;;;;8.00;7.50;;;;;-143.90;100.00;76119.19;5307171;25;98405;-74
2024/04/21 00:25:59;;;;;;;;;10.00;8.75;;;;;-143.90;100.00;76123.34;5307902;25;98143;-74
2024/04/21 00:28:30;;;;;;;;;9.00;6.00;;;;;-143.90;100.00;76131.59;5307148;25;97779;-73
2024/04/21 00:30:57;;;;;;;;;10.50;7.00;;;;;-143.90;100.00;76123.34;5311906;25;99752;-73
2024/04/21 00:33:24;;;;;;;;;8.50;6.50;;;;;-143.90;100.00;76123.34;5308051;25;98187;-74
2024/04/21 00:35:51;;;;;;;;;9.25;9.25;;;;;-143.90;100.00;76127.47;5290740;25;101596;-74
2024/04/21 00:38:18;;;;;;;;;10.00;8.50;;;;;-143.90;100.00;76127.47;5314605;25;99490;-73
2024/04/21 00:40:44;;;;;;;;;11.00;10.00;;;;;-143.90;100.00;76131.59;5274211;25;99757;-73
2024/04/21 00:43:11;;;;;;;;;11.75;10.00;;;;;-143.90;100.00;76139.88;5308444;25;98400;-73
2024/04/21 00:45:46;;;;;;;;;14.00;11.50;;;;;-143.90;100.00;76156.41;5278554;26;97949;-74
2024/04/21 00:48:14;;;;;;;;;10.00;9.67;;;;;-143.90;100.00;76152.28;5307705;25;98203;-73
2024/04/21 00:50:46;;;;;;;;;12.00;8.75;;;;;-143.90;100.00;76152.28;5317956;25;101309;-73
2024/04/21 00:53:16;;;;;;;;;11.50;9.00;;;;;-143.90;100.00;76150.22;5301649;25;98348;-73
2024/04/21 00:55:43;;;;;;;;;9.75;8.75;;;;;-143.90;100.00;76154.34;5301468;26;99531;-74
2024/04/21 00:58:12;;;;;;;;;9.75;9.00;;;;;-143.90;100.00;76148.16;5308532;25;98247;-74
2024/04/21 01:00:39;;;;;;;;;11.50;10.00;;;;;-143.90;100.00;76152.28;5298144;25;99778;-74
2024/04/21 01:03:06;;;;;;;;;10.33;7.67;;;;;-143.90;100.00;76146.09;5315818;25;97974;-75
2024/04/21 01:05:33;;;;;;;;;13.00;9.75;;;;;-143.90;100.00;76156.41;5294689;25;98627;-74
2024/04/21 01:08:00;;;;;;;;;13.50;10.00;;;;;-143.90;100.00;76162.63;5302176;25;97970;-74
2024/04/21 01:10:26;;;;;;;;;13.33;10.67;;;;;-143.90;100.00;76162.63;5307340;25;99632;-73
2024/04/21 01:12:53;;;;;;;;;10.33;10.00;;;;;-143.90;100.00;76172.97;5306985;25;98045;-73
2024/04/21 01:15:20;;;;;;;;;11.00;10.00;;;;;-143.90;100.00;76175.03;5309768;25;99291;-74
2024/04/21 01:17:47;;;;;;;;;13.50;12.25;;;;;-143.90;100.00;76179.16;5291242;25;98118;-73
2024/04/21 01:20:15;;;;;;;;;11.00;10.00;;;;;-143.90;100.00;76177.09;5309560;25;99988;-73
2024/04/21 01:22:50;;;;;;;;;10.00;9.67;;;;;-143.90;100.00;76166.75;5308946;26;98120;-73
2024/04/21 01:25:19;;;;;;;;;14.67;13.00;;;;;-143.90;100.00;76185.38;5304916;25;98670;-74
2024/04/21 01:27:46;;;;;;;;;13.67;13.00;;;;;-143.90;100.00;76191.56;5301272;25;97709;-73
2024/04/21 01:30:13;;;;;;;;;15.00;12.00;;;;;-143.90;100.00;76191.56;5299695;25;99811;-73
2024/04/21 01:32:39;;;;;;;;;13.00;13.00;;;;;-143.90;100.00;76191.56;5310060;25;97881;-74
2024/04/21 01:35:06;;;;;;;;;11.25;10.75;;;;;-143.90;100.00;76189.50;5298776;25;98013;-74
2024/04/21 01:37:35;;;;;;;;;17.67;12.00;;;;;-143.90;100.00;76193.66;5306892;25;98200;-74
2024/04/21 01:40:04;;;;;;;;;14.00;10.67;;;;;-143.90;100.00;76197.78;5298686;25;102853;-74
2024/04/21 01:42:31;;;;;;;;;13.67;12.67;;;;;-143.90;100.00;76197.78;5315465;25;98562;-73
2024/04/21 01:44:57;;;;;;;;;12.25;9.50;;;;;-143.90;100.00;76193.66;5304943;25;98264;-73
2024/04/21 01:47:24;;;;;;;;;16.33;14.33;;;;;-143.90;100.00;76197.78;5295466;26;98109;-73
2024/04/21 01:49:51;;;;;;;;;15.50;13.75;;;;;-143.90;100.00;76201.91;5302585;26;99733;-74
2024/04/21 01:52:18;;;;;;;;;14.00;10.00;;;;;-143.90;100.00;76206.06;5315224;25;98772;-74
2024/04/21 01:54:45;;;;;;;;;17.25;14.50;;;;;-143.90;100.00;76210.19;5304684;25;99887;-74
2024/04/21 01:57:11;;;;;;;;;15.67;12.67;;;;;-143.90;100.00;76214.31;5317712;26;98381;-74
2024/04/21 01:59:38;;;;;;;;;16.67;13.67;;;;;-143.90;100.00;76216.41;5294081;25;100899;-73
2024/04/21 02:02:05;;;;;;;;;16.00;13.00;;;;;-143.90;100.00;76214.31;5311839;26;98064;-74
2024/04/21 02:04:32;;;;;;;;;16.00;12.67;;;;;-143.90;100.00;76218.47;5302611;25;97874;-74
2024/04/21 02:06:58;;;;;;;;;12.25;11.00;;;;;-143.90;100.00;76214.31;5311315;25;102401;-74
2024/04/21 02:09:25;;;;;;;;;7.75;7.50;;;;;-143.90;100.00;76214.31;5304932;25;100665;-74
2024/04/21 02:11:52;;;;;;;;;21.00;12.75;;;;;-143.90;100.00;76220.53;5295249;25;98141;-74
2024/04/21 02:14:18;;;;;;;;;18.33;13.67;;;;;-143.90;100.00;76226.72;5303973;25;97843;-73
2024/04/21 02:16:45;;;;;;;;;13.67;12.33;;;;;-143.90;100.00;76222.59;5317460;25;97841;-73
2024/04/21 02:19:12;;;;;;;;;19.75;14.75;;;;;-143.90;100.00;76214.31;5310274;25;99753;-74
2024/04/21 02:21:39;;;;;;;;;13.67;12.00;;;;;-143.90;100.00;76216.41;5299239;25;98458;-74
2024/04/21 02:24:05;;;;;;;;;14.00;13.00;;;;;-143.90;100.00;76220.53;5315286;26;97922;-74
2024/04/21 02:26:32;;;;;;;;;21.00;13.00;;;;;-143.90;100.00;76222.59;5316840;25;98215;-74
2024/04/21 02:28:59;;;;;;;;;15.33;12.67;;;;;-143.90;100.00;76214.31;5313875;25;99872;-74
2024/04/21 02:31:26;;;;;;;;;18.67;16.00;;;;;-143.90;100.00;76222.59;5307687;26;98137;-74
2024/04/21 02:33:52;;;;;;;;;14.67;12.00;;;;;-143.90;100.00;76224.66;5295614;25;102119;-74
2024/04/21 02:36:19;;;;;;;;;25.00;15.00;;;;;-143.90;100.00;76228.81;5304236;25;98616;-74
2024/04/21 02:38:46;;;;;;;;;12.67;11.33;;;;;-143.90;100.00;76226.72;5309788;25;99828;-73
2024/04/21 02:41:12;;;;;;;;;14.33;12.00;;;;;-143.90;100.00;76216.41;5316762;26;98023;-73
2024/04/21 02:43:39;;;;;;;;;9.50;7.00;;;;;-143.90;100.00;76218.47;5301268;25;97707;-74
2024/04/21 02:46:06;;;;;;;;;14.33;12.33;;;;;-143.90;100.00;76214.31;5302165;26;98367;-74
2024/04/21 02:48:33;;;;;;;;;21.25;15.50;;;;;-143.90;100.00;76208.13;5312027;25;104771;-74
2024/04/21 02:51:00;;;;;;;;;22.67;15.00;;;;;-143.90;100.00;76214.31;5310668;25;98467;-74
2024/04/21 02:53:27;;;;;;;;;17.00;15.67;;;;;-143.90;100.00;76212.25;5306350;25;98429;-74
2024/04/21 02:55:53;;;;;;;;;13.67;12.00;;;;;-143.90;100.00;76220.53;5290555;26;98407;-73
2024/04/21 02:58:20;;;;;;;;;18.67;13.67;;;;;-143.90;100.00;76224.66;5313278;26;99777;-74
2024/04/21 03:00:47;;;;;;;;;19.67;16.00;;;;;-143.90;100.00;76218.47;5311256;25;105066;-74
2024/04/21 03:03:14;;;;;;;;;20.67;17.33;;;;;-143.90;100.00;76222.59;5306290;25;98569;-74
2024/04/21 03:05:40;;;;;;;;;18.67;15.33;;;;;-143.90;100.00;76220.53;5301359;25;98093;-74
2024/04/21 03:08:08;;;;;;;;;17.00;12.00;;;;;-143.90;100.00;76222.59;5308031;26;99784;-72
2024/04/21 03:10:35;;;;;;;;;19.33;17.00;;;;;-143.90;100.00;76226.72;5312510;25;98554;-74
2024/04/21 03:13:02;;;;;;;;;17.67;14.00;;;;;-143.90;100.00;76222.59;5315575;25;99139;-73
2024/04/21 03:15:28;;;;;;;;;18.33;16.33;;;;;-143.90;100.00;76226.72;5306407;25;99539;-73
2024/04/21 03:17:55;;;;;;;;;14.67;12.00;;;;;-143.90;100.00;76216.41;5292583;25;100877;-73
2024/04/21 03:20:22;;;;;;;;;11.33;9.67;;;;;-143.90;100.00;76214.31;5312050;25;98594;-73
2024/04/21 03:22:48;;;;;;;;;10.25;9.25;;;;;-143.90;100.00;76206.06;5309636;25;98398;-73
2024/04/21 03:25:15;;;;;;;;;16.00;14.00;;;;;-143.90;100.00;76208.13;5301565;25;97727;-74
2024/04/21 03:27:42;;;;;;;;;22.33;12.67;;;;;-143.90;100.00;76206.06;5290955;25;99846;-73
2024/04/21 03:30:09;;;;;;;;;17.00;13.00;;;;;-143.90;100.00;76208.13;5321854;25;99565;-73
2024/04/21 03:32:36;;;;;;;;;15.00;13.00;;;;;-143.90;100.00;76197.78;5314809;25;98196;-74
2024/04/21 03:35:04;;;;;;;;;22.00;14.33;;;;;-143.90;100.00;76193.66;5307276;25;98479;-74
2024/04/21 03:37:30;;;;;;;;;20.33;16.67;;;;;-143.90;100.00;76197.78;5300696;25;99739;-74
2024/04/21 03:40:00;;;;;;;;;17.67;14.00;;;;;-143.90;100.00;76197.78;5310583;25;99332;-73
2024/04/21 03:42:27;;;;;;;;;21.67;17.00;;;;;-143.90;100.00;76199.84;5312599;25;98471;-73
2024/04/21 03:44:53;;;;;;;;;16.67;15.33;;;;;-143.90;100.00;76201.91;5318814;25;98672;-73
2024/04/21 03:47:20;;;;;;;;;14.33;12.67;;;;;-143.90;100.00;76206.06;5271253;26;99737;-73
2024/04/21 03:49:47;;;;;;;;;14.67;14.33;;;;;-143.90;100.00;76206.06;5304121;25;98600;-73
2024/04/21 03:52:13;;;;;;;;;20.67;18.33;;;;;-143.90;100.00;76206.06;5316174;25;99820;-73
2024/04/21 03:54:40;;;;;;;;;23.33;21.00;;;;;-143.90;100.00;76201.91;5309993;25;98368;-74
2024/04/21 03:57:07;;;;;;;;;20.00;17.33;;;;;-143.90;100.00;76214.31;5312889;25;99736;-73
2024/04/21 03:59:34;;;;;;;;;19.67;18.33;;;;;-143.90;100.00;76218.47;5300503;25;97874;-73
2024/04/21 04:02:01;;;;;;;;;21.33;17.67;;;;;-143.90;100.00;76214.31;5309119;25;98651;-73
2024/04/21 04:04:28;;;;;;;;;22.67;20.00;;;;;-143.90;100.00;76216.41;5308945;25;102603;-73
2024/04/21 04:06:55;;;;;;;;;14.00;13.33;;;;;-143.90;100.00;76216.41;5308180;25;99750;-73
2024/04/21 04:09:21;;;;;;;;;22.67;18.33;;;;;-143.90;100.00;76226.72;5277062;26;98670;-74
2024/04/21 04:11:48;;;;;;;;;16.00;15.00;;;;;-143.90;100.00;76216.41;5314368;26;98565;-74
2024/04/21 04:14:15;;;;;;;;;17.00;12.00;;;;;-143.90;100.00;76216.41;5313500;25;98200;-73
2024/04/21 04:16:42;;;;;;;;;24.67;21.00;;;;;-143.90;100.00;76214.31;5317780;25;102636;-74
2024/04/21 04:19:09;;;;;;;;;27.00;20.67;;;;;-143.90;100.00;76222.59;5303103;25;98207;-74
2024/04/21 04:21:36;;;;;;;;;24.67;20.00;;;;;-143.90;100.00;76222.59;5317622;26;98504;-74
2024/04/21 04:24:03;;;;;;;;;16.33;13.00;;;;;-143.90;100.00;76222.59;5307094;25;97901;-74
2024/04/21 04:26:29;;;;;;;;;17.33;14.00;;;;;-143.90;100.00;76216.41;5307871;25;100017;-74
2024/04/21 04:28:56;;;;;;;;;14.67;11.33;;;;;-143.90;100.00;76218.47;5299910;26;98427;-74
2024/04/21 04:31:23;;;;;;;;;23.33;16.00;;;;;-143.90;100.00;76218.47;5315030;25;98634;-73
2024/04/21 04:33:50;;;;;;;;;21.00;17.00;;;;;-143.90;100.00;76218.47;5311763;25;97966;-74
2024/04/21 04:36:16;;;;;;;;;18.67;12.00;;;;;-143.90;100.00;76220.53;5306095;26;101093;-74
2024/04/21 04:38:43;;;;;;;;;12.00;12.00;;;;;-143.90;100.00;76222.59;5309706;26;98485;-74
2024/04/21 04:41:10;;;;;;;;;21.00;18.33;;;;;-143.90;100.00;76218.47;5304309;26;98206;-74
2024/04/21 04:43:36;;;;;;;;;26.67;19.33;;;;;-143.90;100.00;76222.59;5314357;25;97818;-74
2024/04/21 04:46:05;;;;;;;;;24.67;19.00;;;;;-143.90;100.00;76220.53;5307350;25;106102;-74
2024/04/21 04:48:32;;;;;;;;;16.67;16.67;;;;;-143.90;100.00;76228.81;5301422;26;98278;-73
2024/04/21 04:51:01;;;;;;;;;25.67;19.00;;;;;-143.90;100.00;76235.00;5303374;26;97585;-73
2024/04/21 04:53:28;;;;;;;;;24.33;18.67;;;;;-143.90;100.00;76232.94;5318964;26;99291;-73
2024/04/21 04:55:55;;;;;;;;;24.33;19.67;;;;;-143.90;100.00;76239.13;5306395;25;99972;-74
2024/04/21 04:58:22;;;;;;;;;22.33;19.33;;;;;-143.90;100.00;76235.00;5315641;25;98236;-74
2024/04/21 05:00:48;;;;;;;;;20.33;16.67;;;;;-143.90;100.00;76237.06;5305230;26;98131;-74
2024/04/21 05:03:15;;;;;;;;;24.67;21.67;;;;;-143.90;100.00;76232.94;5303399;25;98324;-74
2024/04/21 05:05:42;;;;;;;;;22.33;18.00;;;;;-143.90;100.00;76239.13;5300180;25;99792;-74
2024/04/21 05:08:09;;;;;;;;;23.67;17.00;;;;;-143.90;100.00;76241.22;5307949;25;98336;-72
2024/04/21 05:10:36;;;;;;;;;19.00;19.00;;;;;-143.90;100.00;76243.28;5314367;25;98951;-73
2024/04/21 05:13:02;;;;;;;;;24.33;19.33;;;;;-143.90;100.00;76245.34;5316556;25;98428;-73
2024/04/21 05:15:30;;;;;;;;;21.67;15.67;;;;;-143.90;100.00;76235.00;5313528;25;99757;-73
2024/04/21 05:17:57;;;;;;;;;15.00;14.33;;;;;-143.90;100.00;76237.06;5268817;25;99510;-73
2024/04/21 05:20:24;;;;;;;;;21.00;16.00;;;;;-143.90;100.00;76230.88;5304568;25;97860;-73
2024/04/21 05:22:50;;;;;;;;;20.67;15.00;;;;;-143.90;100.00;76226.72;5299579;26;98222;-73
2024/04/21 05:25:17;;;;;;;;;18.00;14.00;;;;;-143.90;100.00;76220.53;5319341;25;99732;-74
2024/04/21 05:27:44;;;;;;;;;14.33;12.33;;;;;-143.90;100.00;76220.53;5303521;25;98385;-73
2024/04/21 05:30:11;;;;;;;;;16.50;12.00;;;;;-143.90;100.00;76203.97;5312458;25;98070;-73
2024/04/21 05:32:37;;;;;;;;;13.25;10.50;;;;;-143.90;100.00;76201.91;5305678;26;104352;-74
2024/04/21 05:35:04;;;;;;;;;17.33;13.67;;;;;-143.90;100.00;76201.91;5308497;25;103865;-74
2024/04/21 05:37:31;;;;;;;;;18.00;13.00;;;;;-143.90;100.00;76206.06;5312352;26;99407;-74
2024/04/21 05:39:58;;;;;;;;;28.00;22.33;;;;;-143.90;100.00;76210.19;5298723;25;97978;-73
2024/04/21 05:42:25;;;;;;;;;21.67;19.33;;;;;-143.90;100.00;76201.91;5310005;25;98051;-73
2024/04/21 05:44:51;;;;;;;;;21.33;18.00;;;;;-143.90;100.00;76201.91;5325560;26;99697;-74
2024/04/21 05:47:18;;;;;;;;;21.00;16.33;;;;;-143.90;100.00;76203.97;5316637;25;98552;-73
2024/04/21 05:49:45;;;;;;;;;20.33;16.33;;;;;-143.90;100.00;76203.97;5298080;25;97923;-73
2024/04/21 05:52:14;;;;;;;;;21.33;16.33;;;;;-143.90;100.00;76201.91;5303262;25;98437;-72
2024/04/21 05:54:41;;;;;;;;;18.33;16.67;;;;;-143.90;100.00;76203.97;5306853;25;99758;-72
2024/04/21 05:57:08;;;;;;;;;24.33;17.67;;;;;-143.90;100.00;76208.13;5318891;26;99723;-73
2024/04/21 05:59:34;;;;;;;;;15.33;14.00;;;;;-143.90;100.00;76203.97;5299736;25;98503;-74
2024/04/21 06:02:02;;;;;;;;;21.67;17.00;;;;;-143.90;100.00;76201.91;5306248;25;98010;-74
2024/04/21 06:04:30;;;;;;;;;16.75;16.00;;;;;-143.90;100.00;76210.19;5304540;26;99776;-74
2024/04/21 06:06:58;;;;;;;;;21.00;17.00;;;;;-143.90;100.00;76210.19;5316543;25;97905;-74
2024/04/21 06:09:25;;;;;;;;;22.00;17.00;;;;;-143.90;100.00;76206.06;5308963;25;97916;-74
2024/04/21 06:11:52;;;;;;;;;24.67;18.00;;;;;-143.90;100.00;76208.13;5304547;25;98660;-73
2024/04/21 06:14:19;;;;;;;;;20.33;13.67;;;;;-143.90;100.00;76208.13;5305762;26;99765;-73
2024/04/21 06:16:46;;;;;;;;;23.67;18.00;;;;;-143.90;100.00;76197.78;5307898;25;98090;-73
2024/04/21 06:19:13;;;;;;;;;22.33;18.67;;;;;-143.90;100.00;76199.84;5312113;25;98060;-73
2024/04/21 06:21:40;;;;;;;;;21.67;17.67;;;;;-143.90;100.00;76206.06;5306773;25;99490;-73
2024/04/21 06:24:07;;;;;;;;;22.33;18.67;;;;;-143.90;100.00;76201.91;5299624;26;104386;-73
2024/04/21 06:26:34;;;;;;;;;26.67;22.33;;;;;-143.90;100.00;76210.19;5305374;25;98357;-73
2024/04/21 06:29:00;;;;;;;;;22.33;20.00;;;;;-143.90;100.00;76201.91;5293729;25;97893;-73
2024/04/21 06:31:27;;;;;;;;;28.00;22.33;;;;;-143.90;100.00;76206.06;5307208;25;98371;-73
2024/04/21 06:33:54;;;;;;;;;24.67;21.00;;;;;-143.90;100.00;76218.47;5295452;26;100098;-72
2024/04/21 06:36:21;;;;;;;;;21.00;17.33;;;;;-143.90;100.00;76210.19;5305448;25;98539;-74
2024/04/21 06:38:49;;;;;;;;;25.67;18.00;;;;;-143.90;100.00;76208.13;5314254;25;98317;-74
2024/04/21 06:41:15;;;;;;;;;24.00;21.33;;;;;-143.90;100.00;76208.13;5314553;25;97958;-74
2024/04/21 06:43:42;;;;;;;;;23.67;20.00;;;;;-143.90;100.00;76208.13;5296777;26;100030;-74
2024/04/21 06:46:09;;;;;;;;;18.33;18.33;;;;;-143.90;100.00;76203.97;5310937;25;98411;-73
2024/04/21 06:48:36;;;;;;;;;26.00;20.00;;;;;-143.90;100.00;76197.78;5313989;25;98245;-73
2024/04/21 06:51:03;;;;;;;;;24.67;19.67;;;;;-143.90;100.00;76199.84;5316733;25;98226;-75
2024/04/21 06:53:30;;;;;;;;;19.33;16.67;;;;;-143.90;100.00;76197.78;5310716;25;106519;-72
2024/04/21 06:56:01;;;;;;;;;23.33;18.33;;;;;-143.90;100.00;76197.78;5298819;26;99979;-73
2024/04/21 06:58:27;;;;;;;;;20.67;17.67;;;;;-143.90;100.00;76189.50;5320045;26;98407;-73
2024/04/21 07:00:54;;;;;;;;;20.00;14.33;;;;;-143.90;100.00;76181.25;5320834;25;98547;-74
2024/04/21 07:03:21;;;;;;;;;18.33;17.00;;;;;-143.90;100.00;76177.09;5312700;25;99855;-75
2024/04/21 07:05:48;;;;;;;;;22.00;18.00;;;;;-143.90;100.00;76168.81;5306224;26;98389;-74
2024/04/21 07:08:15;;;;;;;;;18.33;17.67;;;;;-143.90;100.00;76160.56;5301779;26;98377;-75
2024/04/21 07:10:42;;;;;;;;;24.00;17.25;;;;;-143.90;100.00;76160.56;5322086;25;98497;-73
2024/04/21 07:13:09;;;;;;;;;22.67;21.00;;;;;-143.90;100.00;76156.41;5316238;26;102723;-73
2024/04/21 07:15:37;;;;;;;;;20.67;18.00;;;;;-143.90;100.00;76150.22;5306328;26;102630;-74
2024/04/21 07:18:04;;;;;;;;;22.00;20.33;;;;;-143.90;100.00;76148.16;5296444;25;98366;-73
2024/04/21 07:20:31;;;;;;;;;23.33;16.67;;;;;-143.90;100.00;76148.16;5317194;26;98243;-73
2024/04/21 07:22:57;;;;;;;;;15.33;13.00;;;;;-143.90;100.00;76137.81;5293345;25;99684;-74
2024/04/21 07:25:24;;;;;;;;;20.50;17.75;;;;;-143.90;100.00;76131.59;5304273;25;98132;-74
2024/04/21 07:27:52;;;;;;;;;13.33;13.33;;;;;-143.90;100.00;76133.69;5294707;26;98393;-74
2024/04/21 07:30:19;;;;;;;;;26.00;21.33;;;;;-143.90;100.00;76123.34;5319075;26;98235;-74
2024/04/21 07:32:46;;;;;;;;;25.33;22.00;;;;;-143.90;100.00;76131.59;5318214;25;99727;-74
2024/04/21 07:35:12;;;;;;;;;30.00;24.67;;;;;-143.90;100.00;76146.09;5309814;25;98369;-73
2024/04/21 07:37:39;;;;;;;;;33.67;26.00;;;;;-143.90;100.00;76144.00;5301307;26;107034;-73
2024/04/21 07:40:07;;;;;;;;;31.67;29.33;;;;;-143.90;100.00;76154.34;5308188;25;100964;-73
2024/04/21 07:42:33;;;;;;;;;29.00;24.33;;;;;-143.90;100.00;76164.69;5310332;25;99782;-74
2024/04/21 07:45:00;;;;;;;;;30.00;24.00;;;;;-143.90;100.00;76166.75;5309938;25;102642;-74
2024/04/21 07:47:27;;;;;;;;;29.33;23.67;;;;;-143.90;100.00;76177.09;5303283;25;98926;-74
2024/04/21 07:49:54;;;;;;;;;33.00;25.67;;;;;-143.90;100.00;76185.38;5291610;26;97846;-73
2024/04/21 07:52:21;;;;;;;;;29.67;25.00;;;;;-143.90;100.00;76181.25;5325198;25;99767;-74
2024/04/21 07:54:49;;;;;;;;;26.00;24.33;;;;;-143.90;100.00;76185.38;5305717;25;97877;-73
2024/04/21 07:57:15;;;;;;;;;35.67;26.00;;;;;-143.90;100.00;76181.25;5307183;25;98891;-73
2024/04/21 07:59:42;;;;;;;;;30.00;26.67;;;;;-143.90;100.00;76189.50;5299442;26;98320;-74
2024/04/21 08:02:09;;;;;;;;;48.67;34.00;;;;;-143.90;100.00;76185.38;5316034;25;101951;-73
2024/04/21 08:04:36;;;;;;;;;28.67;25.33;;;;;-143.90;100.00;76187.44;5305714;25;98169;-74
2024/04/21 08:07:03;;;;;;;;;31.67;30.33;;;;;-143.90;100.00;76201.91;5310289;25;98028;-74
2024/04/21 08:09:30;;;;;;;;;28.00;24.00;;;;;-143.90;100.00;76181.25;5298559;26;98621;-74
2024/04/21 08:11:57;;;;;;;;;35.67;28.33;;;;;-143.90;100.00;76179.16;5299846;25;99777;-74
2024/04/21 08:14:24;;;;;;;;;28.33;25.00;;;;;-143.90;100.00;76168.81;5311541;25;98016;-74
2024/04/21 08:16:51;;;;;;;;;32.00;29.33;;;;;-143.90;100.00;76160.56;5307224;25;97819;-74
2024/04/21 08:19:18;;;;;;;;;28.67;23.00;;;;;-143.90;100.00;76158.50;5306730;25;97823;-73
2024/04/21 08:21:46;;;;;;;;;32.33;28.00;;;;;-143.90;100.00;76166.75;5301190;25;100012;-73
2024/04/21 08:24:13;;;;;;;;;33.00;24.67;;;;;-143.90;100.00;76177.09;5313782;25;98441;-73
2024/04/21 08:26:40;;;;;;;;;28.67;26.67;;;;;-143.90;100.00;76162.63;5268034;26;1162009;-73
2024/04/21 08:29:06;;;;;;;;;38.00;30.00;;;;;-143.90;100.00;76168.81;5311896;26;98045;-73
2024/04/21 08:31:33;;;;;;;;;25.33;20.33;;;;;-143.90;100.00;76166.75;5307356;25;100037;-74
2024/04/21 08:34:00;;;;;;;;;32.67;25.67;;;;;-143.90;100.00;76156.41;5303333;25;100319;-73
2024/04/21 08:36:27;;;;;;;;;30.00;26.67;;;;;-143.90;100.00;76137.81;5313921;25;98115;-73
2024/04/21 08:38:55;;;;;;;;;37.67;27.67;;;;;-143.90;100.00;76131.59;5311797;25;100148;-73
2024/04/21 08:41:22;;;;;;;;;30.67;27.67;;;;;-143.90;100.00;76131.59;5309784;25;99942;-74
2024/04/21 08:43:49;;;;;;;;;34.67;32.67;;;;;-143.90;100.00;76123.34;5311678;25;98657;-73
2024/04/21 08:46:17;;;;;;;;;28.33;24.67;;;;;-143.90;100.00;76110.94;5308321;25;99170;-72
2024/04/21 08:48:44;;;;;;;;;29.00;26.50;;;;;-143.90;100.00;76102.66;5311444;25;98791;-72
2024/04/21 08:51:13;;;;;;;;;27.67;26.00;;;;;-143.90;100.00;76102.66;5312733;25;102526;-73
2024/04/21 08:53:40;;;;;;;;;42.67;28.33;;;;;-143.90;100.00;76110.94;5314746;25;98391;-73
2024/04/21 08:56:16;;;;;;;;;34.33;29.33;;;;;-143.90;100.00;76098.53;5305978;25;97913;-73
2024/04/21 08:58:46;;;;;;;;;39.33;31.33;;;;;-143.90;100.00;76098.53;5312264;26;99493;-74
2024/04/21 09:01:14;;;;;;;;;32.67;26.67;;;;;-143.90;100.00;76094.38;5313308;25;104344;-74
2024/04/21 09:03:41;;;;;;;;;31.00;24.33;;;;;-143.90;100.00;76086.13;5314495;25;97994;-74
2024/04/21 09:06:09;;;;;;;;;33.33;27.67;;;;;-143.90;100.00;76084.03;5303987;25;97890;-74
2024/04/21 09:08:35;;;;;;;;;30.00;23.00;;;;;-143.90;100.00;76084.03;5312951;25;98000;-73
2024/04/21 09:11:02;;;;;;;;;28.67;23.33;;;;;-143.90;100.00;76073.72;5311388;25;99720;-74
2024/04/21 09:13:29;;;;;;;;;22.33;20.00;;;;;-143.90;100.00;76067.50;5309616;25;99232;-74
2024/04/21 09:15:56;;;;;;;;;20.50;15.75;;;;;-143.90;100.00;76048.88;5300774;25;98711;-74
2024/04/21 09:18:22;;;;;;;;;26.50;21.00;;;;;-143.90;100.00;76036.47;5310729;25;98756;-74
2024/04/21 09:20:49;;;;;;;;;23.25;20.50;;;;;-143.90;100.00;76040.63;5307076;25;99981;-75
2024/04/21 09:23:16;;;;;;;;;27.00;20.00;;;;;-143.90;100.00;76044.75;5306625;25;104238;-73
2024/04/21 09:25:43;;;;;;;;;26.33;24.33;;;;;-143.90;100.00;76044.75;5303953;25;98400;-75
2024/04/21 09:28:09;;;;;;;;;26.00;22.00;;;;;-143.90;100.00;76046.81;5308753;25;100002;-74
2024/04/21 09:30:36;;;;;;;;;25.75;23.00;;;;;-143.90;100.00;76036.47;5305631;25;99869;-74
2024/04/21 09:33:03;;;;;;;;;26.50;22.75;;;;;-143.90;100.00;76036.47;5304970;25;98492;-74
2024/04/21 09:35:30;;;;;;;;;28.00;24.33;;;;;-143.90;100.00;76034.41;5313539;25;100334;-74
2024/04/21 09:37:57;;;;;;;;;25.75;21.00;;;;;-143.90;100.00;76036.47;5301384;25;98725;-74
2024/04/21 09:40:25;;;;;;;;;22.50;20.25;;;;;-143.90;100.00;76019.94;5317655;26;100748;-74
2024/04/21 09:42:53;;;;;;;;;24.00;20.00;;;;;-143.90;100.00;76007.53;5305616;25;99693;-74
2024/04/21 09:45:22;;;;;;;;;24.50;21.25;;;;;-143.90;100.00;76011.66;5301766;26;103026;-73
2024/04/21 09:47:52;;;;;;;;;31.50;20.50;;;;;-143.90;100.00;76009.59;5301360;25;97975;-73
2024/04/21 09:50:20;;;;;;;;;26.25;19.50;;;;;-143.90;100.00;76013.75;5310609;25;99793;-73
2024/04/21 09:52:49;;;;;;;;;23.00;22.75;;;;;-143.90;100.00;76026.16;5310236;25;97854;-73
2024/04/21 09:55:18;;;;;;;;;23.00;21.25;;;;;-143.90;100.00;76032.34;5313107;25;99748;-73
2024/04/21 09:58:00;;;;;;;;;22.50;19.00;;;;;-143.90;100.00;76028.22;5310039;25;101453;-73
2024/04/21 10:00:31;;;;;;;;;19.25;18.00;;;;;-143.90;100.00;76017.88;5309250;25;104395;-73
2024/04/21 10:03:02;;;;;;;;;20.50;15.25;;;;;-143.90;100.00;76009.59;5312815;25;98182;-72
2024/04/21 10:05:30;;;;;;;;;23.00;19.00;;;;;-143.90;100.00;76007.53;5309397;25;98729;-73
2024/04/21 10:07:59;;;;;;;;;23.75;19.50;;;;;-143.90;100.00;75997.19;5301080;25;98396;-73
2024/04/21 10:10:29;;;;;;;;;27.75;24.50;;;;;-143.90;100.00;75999.25;5310773;25;99741;-73
2024/04/21 10:12:57;;;;;;;;;22.25;19.25;;;;;-143.90;100.00;75986.84;5344216;25;100419;-74
2024/04/21 10:15:25;;;;;;;;;21.00;20.00;;;;;-143.90;100.00;75984.78;5310561;25;98878;-76
2024/04/21 10:17:54;;;;;;;;;20.75;19.50;;;;;-143.90;100.00;75978.59;5337458;25;99795;-74
2024/04/21 10:20:35;;;;;;;;;26.00;22.25;;;;;-143.90;100.00;75970.31;5313129;25;99988;-73
2024/04/21 10:23:05;;;;;;;;;31.00;27.00;;;;;-143.90;100.00;75966.19;5315705;25;99160;-74
2024/04/21 10:25:36;;;;;;;;;25.75;23.00;;;;;-143.90;100.00;75964.13;5313730;25;98021;-73
2024/04/21 10:28:06;;;;;;;;;23.50;18.00;;;;;-143.90;100.00;75953.78;5303005;25;98352;-73
2024/04/21 10:30:35;;;;;;;;;30.75;24.50;;;;;-143.90;100.00;75949.63;5309408;26;99733;-74
2024/04/21 10:33:04;;;;;;;;;22.75;20.75;;;;;-143.90;100.00;75955.84;5305961;25;99959;-73
2024/04/21 10:35:35;;;;;;;;;18.75;16.00;;;;;-143.90;100.00;75949.63;5304560;25;98331;-73
2024/04/21 10:38:07;;;;;;;;;23.50;19.75;;;;;-143.90;100.00;75957.91;5303020;25;98544;-74
2024/04/21 10:41:00;;;;;;;;;18.75;16.00;;;;;-143.90;100.00;75945.50;5311869;26;99878;-74
2024/04/21 10:43:28;;;;;;;;;25.00;22.50;;;;;-143.90;100.00;75943.44;5305942;25;99141;-74
2024/04/21 10:45:58;;;;;;;;;20.50;18.25;;;;;-143.90;100.00;75937.22;5293652;25;98902;-75
2024/04/21 10:48:25;;;;;;;;;16.00;15.25;;;;;-143.90;100.00;75928.97;5305087;25;98384;-74
2024/04/21 10:50:52;;;;;;;;;25.00;20.00;;;;;-143.90;100.00;75931.03;5301183;25;99731;-74
2024/04/21 10:53:19;;;;;;;;;21.25;16.25;;;;;-143.90;100.00;75924.81;5309257;25;98065;-72
2024/04/21 10:55:50;;;;;;;;;18.50;16.50;;;;;-143.90;100.00;75924.81;5301539;25;100125;-73